Latest Weather Observations for Goulburn Airport

IDN60901

Issued at 12:05 pm EST Wednesday 3 September 2014 (issued every 10 minutes, with the page automatically refreshed every 10 minutes)

About weather observations | Map of Canberra area stations | Latest observations for Canberra area | Other Formats
Station Details ID: 070330 Name: GOULBURN AIRPORT AWS Lat: -34.81 Lon: 149.73 Height: 640.0 m
Data from the previous 72 hours. | See also: Recent months at Goulburn Airport
Date/Time
EST
Tmp

°C
App
Tmp
°C
Dew
Point
°C
Rel
Hum
%
Delta-T

°C
Wind Press
QNH
hPa
Press
MSL
hPa
Rain
since
9 am
mm
Dir
 
Spd
km/h
Gust
km/h
Spd
kts
Gust
kts
03/12:00pm 11.2 3.4 1.7 52 4.2 SSE 32 43 17 23 1015.2 1015.1 0.0
03/11:30am 10.6 4.0 2.2 56 3.7 SSW 26 35 14 19 1015.4 - 0.0
03/11:00am 10.7 4.4 1.5 53 4.0 S 24 32 13 17 1015.7 - 0.0
03/10:30am 9.8 3.0 0.9 54 3.8 SSW 26 35 14 19 1015.9 - 0.0
03/10:00am 8.5 0.8 0.2 56 3.4 S 30 37 16 20 1016.0 - 0.0
03/09:30am 8.5 1.0 1.2 60 3.1 SSW 30 37 16 20 1016.0 - 0.0
03/09:00am 7.7 0.6 1.1 63 2.8 SSW 28 35 15 19 1016.2 1016.2 8.2
03/08:30am 6.5 -1.2 0.2 64 2.6 SSW 30 37 16 20 1016.2 - 8.2
03/08:00am 5.8 -1.1 0.2 67 2.3 SSW 26 37 14 20 1016.3 - 8.2
03/07:30am 4.4 -1.3 -0.8 69 2.0 SW 19 22 10 12 1016.3 - 8.2
03/07:00am 3.0 -2.4 -1.4 73 1.6 SW 17 20 9 11 1016.0 - 8.2
03/06:30am 2.5 -3.5 -1.7 74 1.6 SW 20 28 11 15 1016.0 - 8.2
03/06:00am 2.4 -3.6 -1.7 74 1.5 SW 20 28 11 15 1015.7 1015.6 8.2
03/05:30am 2.7 -3.2 -1.1 76 1.4 SW 20 30 11 16 1015.4 - 8.2
03/05:00am 3.3 -3.7 -0.7 75 1.5 SW 26 33 14 18 1015.1 - 8.2
03/04:30am 3.2 -3.4 -0.4 77 1.4 SW 24 30 13 16 1014.6 - 8.2
03/04:00am 2.8 -2.8 -0.3 80 1.2 SW 19 24 10 13 1014.6 - 8.2
03/03:30am 3.1 -2.2 -0.5 77 1.4 WSW 17 24 9 13 1014.4 - 8.2
03/03:00am 3.7 -2.9 -0.3 75 1.6 SW 24 32 13 17 1014.0 1013.9 8.2
03/02:30am 3.3 -2.9 -0.5 76 1.5 SW 22 28 12 15 1014.1 - 8.2
03/02:00am 3.5 -3.1 -0.3 76 1.5 SW 24 30 13 16 1014.1 - 8.2
03/01:30am 3.5 -3.0 0.0 78 1.4 SW 24 30 13 16 1014.3 - 8.2
03/01:00am 3.4 -2.3 0.6 82 1.1 WSW 20 24 11 13 1014.4 - 8.2
03/12:30am 3.4 -2.1 0.3 80 1.2 WSW 19 24 10 13 1014.5 - 8.2
03/12:00am 4.4 -1.7 0.4 75 1.6 WSW 22 30 12 16 1014.5 1014.4 8.2
 
Date/Time
EST
Tmp

°C
App
Tmp
°C
Dew
Point
°C
Rel
Hum
%
Delta-T

°C
Wind Press
QNH
hPa
Press
MSL
hPa
Rain
since
9 am
mm
Dir
 
Spd
km/h
Gust
km/h
Spd
kts
Gust
kts
02/11:30pm 5.0 -1.5 0.6 73 1.8 SW 24 35 13 19 1014.4 - 8.2
02/11:00pm 5.1 -1.7 0.7 73 1.8 SW 26 35 14 19 1014.3 - 8.2
02/10:30pm 5.2 -2.0 0.8 73 1.8 SW 28 35 15 19 1014.4 - 8.2
02/10:00pm 5.2 -1.6 1.0 74 1.7 SW 26 35 14 19 1014.4 - 8.2
02/09:30pm 5.1 -0.8 1.6 78 1.4 SW 22 32 12 17 1014.4 - 8.2
02/09:00pm 5.4 -2.4 1.7 77 1.5 SW 32 43 17 23 1014.3 1014.2 8.2
02/08:30pm 5.1 0.0 3.1 87 0.9 WSW 19 28 10 15 1014.5 - 8.2
02/08:00pm 5.0 -0.7 3.0 87 0.9 SW 22 32 12 17 1013.9 - 8.2
02/07:30pm 4.9 -1.1 3.2 89 0.7 SW 24 30 13 16 1013.7 - 8.2
02/07:00pm 4.9 -1.5 3.1 88 0.8 SW 26 35 14 19 1012.9 - 7.8
02/06:56pm 4.9 -2.3 3.2 89 0.7 SW 30 48 16 26 1012.9 - 7.8
02/06:30pm 5.2 -2.0 3.1 86 0.9 SSW 30 44 16 24 1012.8 - 6.6
02/06:00pm 5.4 -2.3 3.3 86 0.9 SW 33 48 18 26 1012.3 1012.2 6.0
02/05:30pm 6.0 -2.5 3.3 83 1.2 SW 37 52 20 28 1012.2 - 5.0
02/05:07pm 6.8 -0.2 3.9 82 1.3 SW 30 48 16 26 1011.5 - 4.6
02/05:00pm 7.0 0.4 4.1 82 1.3 SW 28 37 15 20 1011.3 - 4.6
02/04:41pm 7.6 1.0 4.4 80 1.5 WSW 28 41 15 22 1010.9 - 4.2
02/04:30pm 7.5 3.2 5.3 86 1.0 W 17 20 9 11 1010.7 - 4.2
02/04:00pm 6.8 1.4 4.5 85 1.0 W 22 30 12 16 1010.5 - 4.2
02/03:30pm 6.4 0.9 4.2 86 1.0 W 22 33 12 18 1010.1 - 4.2
02/03:04pm 8.2 0.9 2.7 68 2.4 SW 30 54 16 29 1010.1 - 4.2
02/03:00pm 8.2 1.4 3.3 71 2.2 SW 28 35 15 19 1009.8 1009.7 4.2
02/02:30pm 7.7 0.8 4.8 82 1.3 W 30 39 16 21 1009.5 - 4.2
02/02:00pm 7.8 1.7 4.7 81 1.4 WSW 26 35 14 19 1009.4 - 4.2
02/01:31pm 6.9 2.0 5.2 89 0.8 WSW 20 30 11 16 1009.6 - 4.0
02/01:30pm 6.9 2.0 5.2 89 0.8 WSW 20 30 11 16 1009.6 - 4.0
02/01:18pm 7.4 2.9 6.2 92 0.6 SW 19 22 10 12 1009.4 - 3.4
02/01:00pm 8.2 2.7 5.8 85 1.1 WNW 24 30 13 16 1009.4 - 0.4
02/12:30pm 9.4 3.5 4.0 69 2.5 WSW 24 30 13 16 1009.5 - 0.0
02/12:00pm 10.3 5.9 4.5 67 2.7 SW 17 24 9 13 1009.7 1009.6 0.0
02/11:30am 9.6 4.1 3.8 67 2.6 WSW 22 32 12 17 1010.1 - 0.0
02/11:00am 9.8 3.5 3.8 66 2.7 WSW 26 35 14 19 1010.1 - 0.0
02/10:30am 9.2 4.4 5.6 78 1.7 WSW 20 28 11 15 1010.2 - 0.0
02/10:16am 8.1 3.5 5.4 83 1.3 WSW 19 28 10 15 1010.3 - 0.0
02/10:00am 7.5 0.7 5.1 85 1.1 SW 30 39 16 21 1010.4 - 0.0
02/09:30am 8.0 2.2 6.1 88 0.9 W 26 32 14 17 1010.5 - 0.0
02/09:00am 7.6 2.4 5.7 88 0.9 W 22 30 12 16 1010.8 1010.7 0.6
02/08:30am 7.5 1.3 6.0 90 0.7 W 28 37 15 20 1010.8 - 0.6
02/08:00am 7.0 0.3 5.6 91 0.6 WNW 30 37 16 20 1010.5 - 0.6
02/07:30am 6.9 2.3 5.7 92 0.6 NW 19 28 10 15 1010.5 - 0.6
02/07:19am 6.7 2.0 5.3 91 0.6 WNW 19 24 10 13 1010.5 - 0.6
02/07:00am 6.6 1.0 5.4 92 0.6 WNW 24 35 13 19 1010.3 - 0.6
02/06:38am 6.6 0.2 5.4 92 0.6 WNW 28 33 15 18 1010.0 - 0.6
02/06:30am 6.6 1.0 5.6 93 0.5 WNW 24 30 13 16 1009.8 - 0.6
02/06:16am 6.8 2.2 5.6 92 0.6 WNW 19 26 10 14 1009.8 - 0.6
02/06:00am 6.7 2.1 5.5 92 0.6 W 19 24 10 13 1010.1 1009.9 0.6
02/05:47am 6.7 2.0 5.3 91 0.6 W 19 24 10 13 1010.1 - 0.6
02/05:30am 7.0 1.0 5.5 90 0.7 W 26 35 14 19 1010.2 - 0.6
02/05:00am 7.6 3.1 6.1 90 0.7 NW 19 26 10 14 1009.8 - 0.4
02/04:30am 7.9 3.7 5.9 87 0.9 NW 17 20 9 11 1009.6 - 0.2
02/04:00am 8.0 5.0 6.0 87 0.9 NW 11 15 6 8 1009.7 - 0.0
02/03:30am 8.5 5.1 5.8 83 1.3 NNW 13 17 7 9 1009.8 - 0.0
02/03:00am 8.8 4.6 5.5 80 1.6 NW 17 20 9 11 1010.4 1010.2 0.0
02/02:30am 8.7 5.2 5.4 80 1.5 NW 13 19 7 10 1010.5 - 0.0
02/02:00am 8.8 4.1 5.2 78 1.7 WNW 19 24 10 13 1010.8 - 0.0
02/01:30am 9.1 4.8 5.3 77 1.8 WNW 17 20 9 11 1011.1 - 0.0
02/01:00am 9.2 4.0 5.4 77 1.8 WNW 22 28 12 15 1011.5 - 0.0
02/12:30am 9.5 3.5 5.1 74 2.1 WNW 26 33 14 18 1011.3 - 0.0
02/12:03am 10.2 2.9 4.6 68 2.6 WNW 32 50 17 27 1011.0 - 0.0
02/12:00am 10.3 2.8 4.7 68 2.6 WNW 33 50 18 27 1011.0 1010.9 0.0
 
Date/Time
EST
Tmp

°C
App
Tmp
°C
Dew
Point
°C
Rel
Hum
%
Delta-T

°C
Wind Press
QNH
hPa
Press
MSL
hPa
Rain
since
9 am
mm
Dir
 
Spd
km/h
Gust
km/h
Spd
kts
Gust
kts
01/11:54pm 10.8 3.9 4.7 66 2.9 WNW 30 50 16 27 1010.9 - 0.0
01/11:30pm 11.5 6.5 4.7 63 3.2 WNW 20 28 11 15 1010.7 - 0.0
01/11:00pm 12.6 6.3 3.8 55 4.1 NNW 26 33 14 18 1010.4 - 0.0
01/10:30pm 12.5 6.2 4.0 56 4.0 N 26 33 14 18 1010.2 - 0.0
01/10:00pm 12.6 6.4 4.1 56 4.0 N 26 33 14 18 1010.5 - 0.0
01/09:30pm 12.9 7.0 4.1 55 4.1 N 24 30 13 16 1010.6 - 0.0
01/09:00pm 12.9 8.0 4.1 55 4.1 NNW 19 22 10 12 1010.9 1010.8 0.0
01/08:30pm 13.3 7.8 4.2 54 4.3 NNW 22 30 12 16 1011.1 - 0.0
01/08:00pm 12.6 7.7 4.3 57 3.9 NW 19 28 10 15 1011.3 - 0.0
01/07:30pm 11.8 8.2 4.8 62 3.3 NNW 13 17 7 9 1011.7 - 0.0
01/07:00pm 11.3 8.0 4.5 63 3.2 NNW 11 13 6 7 1011.8 - 0.0
01/06:30pm 12.0 8.0 4.7 61 3.5 NNW 15 19 8 10 1011.8 - 0.0
01/06:00pm 12.8 8.8 4.8 58 3.8 NNW 15 19 8 10 1011.7 1011.5 0.0
01/05:30pm 14.0 8.7 4.9 54 4.4 NNW 22 30 12 16 1011.7 - 0.0
01/05:00pm 14.8 9.6 5.6 54 4.5 NW 22 30 12 16 1011.7 - 0.0
01/04:30pm 15.3 8.5 5.2 51 5.0 NW 30 39 16 21 1011.7 - 0.0
01/04:00pm 15.2 9.3 6.0 54 4.6 NW 26 35 14 19 1011.9 - 0.0
01/03:30pm 14.9 8.1 5.1 52 4.8 NW 30 39 16 21 1012.2 - 0.0
01/03:00pm 15.4 8.1 4.5 48 5.3 NW 32 39 17 21 1012.1 1012.0 0.0
01/02:30pm 16.4 9.2 4.8 46 5.7 NW 32 43 17 23 1012.1 - 0.0
01/02:00pm 15.9 9.4 4.6 47 5.5 WNW 28 39 15 21 1012.4 - 0.0
01/01:30pm 16.4 9.3 5.4 48 5.5 WNW 32 43 17 23 1013.1 - 0.0
01/01:00pm 16.0 8.7 5.3 49 5.3 WNW 33 43 18 23 1013.7 - 0.0
01/12:30pm 16.0 9.9 6.4 53 4.8 NW 28 39 15 21 1014.2 - 0.0
01/12:00pm 15.7 8.6 5.3 50 5.1 WNW 32 41 17 22 1014.6 1014.6 0.0
01/11:30am 15.7 8.9 7.0 56 4.4 WNW 32 46 17 25 1015.1 - 0.0
01/11:00am 15.2 8.0 5.7 53 4.7 WNW 33 44 18 24 1015.2 - 0.0
01/10:30am 15.3 8.6 5.5 52 4.8 WNW 30 39 16 21 1015.4 - 0.0
01/10:00am 16.2 10.0 6.3 52 5.0 WNW 28 35 15 19 1015.6 - 0.0
01/09:30am 13.9 10.4 7.2 64 3.4 WNW 15 20 8 11 1016.0 - 0.0
01/09:00am 11.7 8.4 6.2 69 2.7 NW 13 17 7 9 1016.5 1016.5 0.2
01/08:30am 9.5 7.3 6.2 80 1.6 NW 7 15 4 8 1016.9 - 0.2
01/08:00am 5.3 4.1 4.4 94 0.4 CALM 0 0 0 0 1017.1 - 0.2
01/07:30am 2.8 1.2 2.4 97 0.2 CALM 0 0 0 0 1017.1 - 0.2
01/07:00am 1.0 -0.9 0.6 97 0.2 CALM 0 0 0 0 1016.9 - 0.2
01/06:30am -0.1 -2.2 -0.7 96 0.2 CALM 0 0 0 0 1016.8 - 0.2
01/06:00am 0.7 -1.3 0.1 96 0.2 CALM 0 0 0 0 1016.5 1016.5 0.2
01/05:30am 0.6 -2.5 0.0 96 0.2 N 6 9 3 5 1016.3 - 0.2
01/05:00am 0.4 -2.9 -0.2 96 0.2 N 7 9 4 5 1016.3 - 0.2
01/04:30am 0.9 -1.8 0.2 95 0.3 NE 4 7 2 4 1016.2 - 0.2
01/04:00am 1.7 -0.1 1.0 95 0.3 CALM 0 0 0 0 1016.3 - 0.2
01/03:30am 2.1 -0.4 1.5 96 0.2 NNW 4 7 2 4 1016.4 - 0.2
01/03:00am 2.3 0.6 1.7 96 0.2 CALM 0 0 0 0 1016.4 1016.4 0.2
01/02:30am 2.0 -1.1 1.3 95 0.3 W 7 9 4 5 1016.5 - 0.2
01/02:00am 1.7 -1.3 1.0 95 0.3 W 6 7 3 4 1016.8 - 0.2
01/01:30am 1.4 -2.2 0.5 94 0.3 W 9 9 5 5 1017.3 - 0.2
01/01:00am 2.7 1.0 2.0 95 0.3 CALM 0 0 0 0 1017.5 - 0.2
01/12:30am 3.2 1.6 2.3 94 0.4 CALM 0 0 0 0 1017.7 - 0.2
01/12:00am 3.4 0.7 2.5 94 0.4 NNE 6 7 3 4 1017.8 1017.8 0.2
 
Date/Time
EST
Tmp

°C
App
Tmp
°C
Dew
Point
°C
Rel
Hum
%
Delta-T

°C
Wind Press
QNH
hPa
Press
MSL
hPa
Rain
since
9 am
mm
Dir
 
Spd
km/h
Gust
km/h
Spd
kts
Gust
kts
31/11:30pm 3.7 2.1 2.7 93 0.4 CALM 0 0 0 0 1018.0 - 0.2
31/11:00pm 3.3 1.6 1.8 90 0.6 CALM 0 0 0 0 1018.1 - 0.2
31/10:30pm 3.3 1.6 2.0 91 0.5 CALM 0 0 0 0 1018.4 - 0.2
31/10:00pm 3.8 2.2 2.3 90 0.6 CALM 0 0 0 0 1018.7 - 0.2
31/09:30pm 4.3 2.8 3.0 91 0.6 CALM 0 0 0 0 1018.8 - 0.2
31/09:00pm 4.2 2.5 1.9 85 0.9 CALM 0 6 0 3 1018.8 1019.5 0.2
31/08:30pm 4.8 3.3 2.8 87 0.8 CALM 0 0 0 0 1018.7 - 0.2
31/08:00pm 5.7 4.2 3.2 84 1.1 CALM 0 0 0 0 1018.7 - 0.2
31/07:30pm 6.5 5.1 3.5 81 1.3 CALM 0 0 0 0 1018.8 - 0.2
31/07:00pm 7.0 5.7 4.0 81 1.3 CALM 0 0 0 0 1018.6 - 0.2
31/06:30pm 7.4 4.3 3.8 78 1.6 W 9 11 5 6 1018.4 - 0.2
31/06:00pm 8.7 5.0 4.3 74 2.0 W 13 15 7 8 1018.3 1019.0 0.2
31/05:30pm 11.4 7.7 4.6 63 3.2 W 13 15 7 8 1017.8 - 0.2
31/05:00pm 13.9 10.2 4.5 53 4.5 W 13 17 7 9 1017.7 - 0.2
31/04:30pm 14.9 10.4 4.0 48 5.2 W 17 22 9 12 1017.6 - 0.2
31/04:00pm 15.3 11.3 4.9 50 5.1 W 15 24 8 13 1017.7 - 0.2
31/03:30pm 15.4 10.5 5.0 50 5.1 W 20 26 11 14 1018.0 - 0.2
31/03:00pm 15.1 10.3 4.5 49 5.1 W 19 24 10 13 1018.3 1019.0 0.2
31/02:30pm 15.2 9.9 5.1 51 4.9 W 22 26 12 14 1018.6 - 0.2
31/02:00pm 15.3 9.5 2.1 41 6.1 W 22 30 12 16 1018.8 - 0.2
31/01:30pm 15.3 8.9 1.1 38 6.4 W 24 32 13 17 1019.1 - 0.2
31/01:00pm 15.4 9.8 3.5 45 5.6 WNW 22 30 12 16 1019.3 - 0.2
31/12:30pm 15.2 9.4 2.1 41 6.0 W 22 28 12 15 1019.8 - 0.2

Latest Capital City Observations: Canberra | Sydney | Melbourne | Brisbane | Adelaide | Perth | Hobart | Darwin

Other Formats:

Comma delimited format used in spreadsheet applications
http://www.bom.gov.au/fwo/IDN60903/IDN60903.95716.axf

JavaScript Object Notation format (JSON) in row-major order
http://www.bom.gov.au/fwo/IDN60903/IDN60903.95716.json